19分钟前
罗盘
风向 的 风向 060° Mahanewo Airport 15/33
风: 11 千吨, 4 beaufort
0 500 1.500 3.000 5.000 8.000 10.000
未检测到零云
METAR YPWR 261730Z AUTO 06011KT 9999 // NCD 24/19 Q1002 RF00.0/002.8

METAR定义 | 嵌入

24小时趋势

航班类别VFRLIFR
温度37 °C22 °C
风速27 千吨0 千吨
能见度10 公里+0 米

更多历史数据

下载我们的安卓应用程序

从你的主屏幕上轻松地访问你的航空天气。
只需一次付费,您就可以获得无广告的体验。

您会帮助我们保持Metar-Taf.com正常运行吗?
您的贡献有助于网站的进一步开发并支付费用。

没有更多广告

您是捐款5美元还是更多?然后,我们将永远不会再向您展示广告,这是我们永恒的感谢!
捐赠前先登录

METAR Mahanewo Airport

该字段位于澳大利亚中。 机场有{a,plural,=1{一条跑道} other{#跑道}}: 6/24 和 15/33

Mahanewo Airport最近未发布观察结果。相反,我们向您显示73 km的报告Woomera Airfield。 该报告是针对2022年1月27日 04:00, 当地时间进行的。

机场观察

风来自东北东 (060°)方向,速度为11 千吨。

可见度为10 公里 或者更多。

有未检测到零云。 没有观察到天花板。

温度和风寒是24 °C。 露点为19 °C,相对湿度为74%。 海平面上的气压为1002 压力 (QNH)。

白天

今天,太阳从06:43升起,在20:29降落。 这适用于Mahanewo Airport,世界夏令时可能有所不同。 当地时间与世界标准时间之间的时差为+10 小时 30 分钟。 当前,没有夏令时有效。

公司介绍

我们没有关于这个机场的公司信息。

体会

到Vliegles.nl去找飞行课程,跳伞和其他飞行体验。 浏览页面,了解Mahanewo Airport附近所有可用的活动。 你也可以使用搜索功能来寻找你所在地附近的特定飞行课程、跳伞或其他飞行体验。

您是否要在网站上Mahanewo Airport飞行的天气? 阅读更多   自由!